sensor_id;sensor_type;location;lat;lon;timestamp;pressure;altitude;pressure_sealevel;temperature;humidity
67109;BME280;54027;50.786;7.058;2023-02-17T00:02:20;101718.88;;;10.79;83.70
67109;BME280;54027;50.786;7.058;2023-02-17T00:04:46;101711.09;;;10.80;84.09
67109;BME280;54027;50.786;7.058;2023-02-17T00:07:11;101706.84;;;10.86;83.65
67109;BME280;54027;50.786;7.058;2023-02-17T00:09:36;101710.28;;;10.86;84.00
67109;BME280;54027;50.786;7.058;2023-02-17T00:12:01;101702.53;;;10.89;83.50
67109;BME280;54027;50.786;7.058;2023-02-17T00:14:27;101694.78;;;10.91;83.53
67109;BME280;54027;50.786;7.058;2023-02-17T00:16:52;101699.97;;;10.95;83.38
67109;BME280;54027;50.786;7.058;2023-02-17T00:19:17;101694.81;;;10.97;83.78
67109;BME280;54027;50.786;7.058;2023-02-17T00:21:53;101688.81;;;10.98;83.76
67109;BME280;54027;50.786;7.058;2023-02-17T00:24:18;101692.22;;;10.98;83.59
67109;BME280;54027;50.786;7.058;2023-02-17T00:26:44;101690.50;;;10.99;83.67
67109;BME280;54027;50.786;7.058;2023-02-17T00:29:09;101686.22;;;11.01;83.85
67109;BME280;54027;50.786;7.058;2023-02-17T00:31:34;101684.47;;;11.01;83.21
67109;BME280;54027;50.786;7.058;2023-02-17T00:33:59;101678.47;;;11.01;83.56
67109;BME280;54027;50.786;7.058;2023-02-17T00:36:26;101671.53;;;11.01;83.64
67109;BME280;54027;50.786;7.058;2023-02-17T00:38:52;101675.88;;;11.02;83.11
67109;BME280;54027;50.786;7.058;2023-02-17T00:41:18;101676.75;;;11.06;82.97
67109;BME280;54027;50.786;7.058;2023-02-17T00:43:44;101674.16;;;11.07;82.97
67109;BME280;54027;50.786;7.058;2023-02-17T00:46:09;101675.88;;;11.05;83.04
67109;BME280;54027;50.786;7.058;2023-02-17T00:48:35;101671.56;;;11.07;83.15
67109;BME280;54027;50.786;7.058;2023-02-17T00:51:00;101675.88;;;11.05;83.02
67109;BME280;54027;50.786;7.058;2023-02-17T00:53:26;101680.19;;;11.03;83.29
67109;BME280;54027;50.786;7.058;2023-02-17T00:55:51;101675.00;;;11.00;83.05
67109;BME280;54027;50.786;7.058;2023-02-17T00:58:16;101672.44;;;11.00;83.06
67109;BME280;54027;50.786;7.058;2023-02-17T01:00:42;101679.31;;;11.00;83.27
67109;BME280;54027;50.786;7.058;2023-02-17T01:03:07;101672.41;;;10.97;83.37
67109;BME280;54027;50.786;7.058;2023-02-17T01:05:32;101676.69;;;10.95;84.00
67109;BME280;54027;50.786;7.058;2023-02-17T01:07:58;101674.09;;;10.95;83.31
67109;BME280;54027;50.786;7.058;2023-02-17T01:10:23;101668.94;;;10.98;83.97
67109;BME280;54027;50.786;7.058;2023-02-17T01:12:48;101668.94;;;10.98;83.21
67109;BME280;54027;50.786;7.058;2023-02-17T01:15:13;101671.53;;;10.97;83.26
67109;BME280;54027;50.786;7.058;2023-02-17T01:17:39;101672.41;;;10.94;83.50
67109;BME280;54027;50.786;7.058;2023-02-17T01:20:04;101666.34;;;10.95;84.01
67109;BME280;54027;50.786;7.058;2023-02-17T01:22:29;101662.91;;;10.93;84.04
67109;BME280;54027;50.786;7.058;2023-02-17T01:24:55;101662.03;;;10.91;83.76
67109;BME280;54027;50.786;7.058;2023-02-17T01:27:20;101652.56;;;10.92;84.14
67109;BME280;54027;50.786;7.058;2023-02-17T01:29:45;101648.25;;;10.94;84.07
67109;BME280;54027;50.786;7.058;2023-02-17T01:32:11;101640.50;;;10.94;83.62
67109;BME280;54027;50.786;7.058;2023-02-17T01:34:36;101637.03;;;10.93;83.80
67109;BME280;54027;50.786;7.058;2023-02-17T01:37:01;101632.72;;;10.94;83.91
67109;BME280;54027;50.786;7.058;2023-02-17T01:39:27;101630.16;;;10.94;84.26
67109;BME280;54027;50.786;7.058;2023-02-17T01:41:52;101630.16;;;10.97;83.78
67109;BME280;54027;50.786;7.058;2023-02-17T01:44:18;101626.69;;;10.96;83.93
67109;BME280;54027;50.786;7.058;2023-02-17T01:46:48;101622.38;;;10.94;83.87
67109;BME280;54027;50.786;7.058;2023-02-17T01:49:18;101622.41;;;10.97;84.34
67109;BME280;54027;50.786;7.058;2023-02-17T01:51:47;101615.50;;;11.00;83.65
67109;BME280;54027;50.786;7.058;2023-02-17T01:54:21;101610.34;;;11.02;84.00
67109;BME280;54027;50.786;7.058;2023-02-17T01:56:48;101612.91;;;11.02;83.61
67109;BME280;54027;50.786;7.058;2023-02-17T01:59:15;101606.88;;;11.00;83.54
67109;BME280;54027;50.786;7.058;2023-02-17T02:01:41;101606.00;;;10.99;83.78
67109;BME280;54027;50.786;7.058;2023-02-17T02:04:06;101600.84;;;10.99;83.79
67109;BME280;54027;50.786;7.058;2023-02-17T02:06:32;101606.88;;;11.00;83.96
67109;BME280;54027;50.786;7.058;2023-02-17T02:09:18;101598.25;;;10.98;84.04
67109;BME280;54027;50.786;7.058;2023-02-17T02:11:46;101597.38;;;10.96;83.87
67109;BME280;54027;50.786;7.058;2023-02-17T02:14:11;101599.94;;;10.93;84.49
67109;BME280;54027;50.786;7.058;2023-02-17T02:17:25;101607.72;;;10.91;84.37
67109;BME280;54027;50.786;7.058;2023-02-17T02:34:50;101607.69;;;10.82;84.92
67109;BME280;54027;50.786;7.058;2023-02-17T02:37:19;101591.31;;;10.82;84.85
67109;BME280;54027;50.786;7.058;2023-02-17T02:39:47;101599.91;;;10.84;84.52
67109;BME280;54027;50.786;7.058;2023-02-17T02:42:19;101595.63;;;10.83;84.89
67109;BME280;54027;50.786;7.058;2023-02-17T02:44:45;101592.16;;;10.80;84.55
67109;BME280;54027;50.786;7.058;2023-02-17T02:49:55;101605.06;;;10.76;85.39
67109;BME280;54027;50.786;7.058;2023-02-17T02:55:11;101588.69;;;10.78;84.95
67109;BME280;54027;50.786;7.058;2023-02-17T03:05:08;101575.84;;;11.03;83.64
67109;BME280;54027;50.786;7.058;2023-02-17T03:08:18;101568.09;;;11.06;83.88
67109;BME280;54027;50.786;7.058;2023-02-17T03:10:23;101566.41;;;11.12;83.26
67109;BME280;54027;50.786;7.058;2023-02-17T03:12:49;101570.69;;;11.13;82.49
67109;BME280;54027;50.786;7.058;2023-02-17T03:15:16;101561.22;;;11.14;82.89
67109;BME280;54027;50.786;7.058;2023-02-17T03:17:42;101550.00;;;11.13;82.53
67109;BME280;54027;50.786;7.058;2023-02-17T03:20:08;101559.50;;;11.14;82.61
67109;BME280;54027;50.786;7.058;2023-02-17T03:22:40;101558.63;;;11.15;82.14
67109;BME280;54027;50.786;7.058;2023-02-17T03:25:07;101561.22;;;11.15;82.46
67109;BME280;54027;50.786;7.058;2023-02-17T03:27:32;101551.72;;;11.19;82.37
67109;BME280;54027;50.786;7.058;2023-02-17T03:29:58;101557.78;;;11.18;82.42
67109;BME280;54027;50.786;7.058;2023-02-17T03:32:23;101550.88;;;11.18;81.93
67109;BME280;54027;50.786;7.058;2023-02-17T03:34:48;101555.19;;;11.19;82.36
67109;BME280;54027;50.786;7.058;2023-02-17T03:37:14;101554.31;;;11.20;82.08
67109;BME280;54027;50.786;7.058;2023-02-17T03:39:39;101557.78;;;11.22;82.01
67109;BME280;54027;50.786;7.058;2023-02-17T03:42:05;101548.31;;;11.24;81.50
67109;BME280;54027;50.786;7.058;2023-02-17T03:44:30;101543.97;;;11.25;81.99
67109;BME280;54027;50.786;7.058;2023-02-17T03:46:55;101543.13;;;11.24;81.66
67109;BME280;54027;50.786;7.058;2023-02-17T03:49:20;101541.38;;;11.22;82.05
67109;BME280;54027;50.786;7.058;2023-02-17T03:51:46;101538.78;;;11.17;82.04
67109;BME280;54027;50.786;7.058;2023-02-17T03:54:11;101549.13;;;11.16;82.02
67109;BME280;54027;50.786;7.058;2023-02-17T03:56:36;101547.41;;;11.15;82.01
67109;BME280;54027;50.786;7.058;2023-02-17T03:59:02;101549.13;;;11.14;82.10
67109;BME280;54027;50.786;7.058;2023-02-17T04:01:27;101552.59;;;11.16;81.71
67109;BME280;54027;50.786;7.058;2023-02-17T04:03:53;101555.16;;;11.16;81.63
67109;BME280;54027;50.786;7.058;2023-02-17T04:06:18;101558.66;;;11.18;81.64
67109;BME280;54027;50.786;7.058;2023-02-17T04:08:43;101561.25;;;11.18;81.49
67109;BME280;54027;50.786;7.058;2023-02-17T04:11:09;101562.09;;;11.17;81.94
67109;BME280;54027;50.786;7.058;2023-02-17T04:13:34;101557.75;;;11.16;81.66
67109;BME280;54027;50.786;7.058;2023-02-17T04:16:00;101554.28;;;11.13;82.09
67109;BME280;54027;50.786;7.058;2023-02-17T04:18:25;101555.16;;;11.07;81.75
67109;BME280;54027;50.786;7.058;2023-02-17T04:20:51;101557.75;;;11.06;81.76
67109;BME280;54027;50.786;7.058;2023-02-17T04:23:17;101562.94;;;11.09;81.74
67109;BME280;54027;50.786;7.058;2023-02-17T04:25:42;101561.22;;;11.06;81.14
67109;BME280;54027;50.786;7.058;2023-02-17T04:28:08;101559.47;;;11.08;81.74
67109;BME280;54027;50.786;7.058;2023-02-17T04:30:33;101567.25;;;11.07;81.65
67109;BME280;54027;50.786;7.058;2023-02-17T04:32:59;101562.91;;;11.07;81.25
67109;BME280;54027;50.786;7.058;2023-02-17T04:35:24;101563.78;;;11.11;81.16
67109;BME280;54027;50.786;7.058;2023-02-17T04:37:50;101556.88;;;11.16;81.04
67109;BME280;54027;50.786;7.058;2023-02-17T04:40:16;101561.22;;;11.15;80.55
67109;BME280;54027;50.786;7.058;2023-02-17T04:42:41;101557.75;;;11.13;81.24
67109;BME280;54027;50.786;7.058;2023-02-17T04:45:06;101536.19;;;11.08;81.37
67109;BME280;54027;50.786;7.058;2023-02-17T04:47:32;101543.09;;;11.06;80.91
67109;BME280;54027;50.786;7.058;2023-02-17T04:49:57;101543.06;;;11.05;80.55
67109;BME280;54027;50.786;7.058;2023-02-17T04:52:23;101549.97;;;11.07;81.17
67109;BME280;54027;50.786;7.058;2023-02-17T04:54:48;101550.88;;;11.09;80.68
67109;BME280;54027;50.786;7.058;2023-02-17T04:57:13;101553.44;;;11.11;80.77
67109;BME280;54027;50.786;7.058;2023-02-17T04:59:38;101553.47;;;11.12;80.49
67109;BME280;54027;50.786;7.058;2023-02-17T05:02:04;101549.13;;;11.13;80.38
67109;BME280;54027;50.786;7.058;2023-02-17T05:04:29;101539.63;;;11.13;81.02
67109;BME280;54027;50.786;7.058;2023-02-17T05:06:54;101543.09;;;11.11;80.37
67109;BME280;54027;50.786;7.058;2023-02-17T05:09:20;101538.78;;;11.10;80.66
67109;BME280;54027;50.786;7.058;2023-02-17T05:11:45;101536.19;;;11.05;80.83
67109;BME280;54027;50.786;7.058;2023-02-17T05:14:10;101546.53;;;11.04;81.02
67109;BME280;54027;50.786;7.058;2023-02-17T05:16:35;101555.13;;;10.98;81.01
67109;BME280;54027;50.786;7.058;2023-02-17T05:19:01;101555.16;;;11.00;80.69
67109;BME280;54027;50.786;7.058;2023-02-17T05:21:26;101542.19;;;10.98;80.94
67109;BME280;54027;50.786;7.058;2023-02-17T05:23:51;101541.34;;;10.96;80.70
67109;BME280;54027;50.786;7.058;2023-02-17T05:26:16;101549.09;;;10.95;80.72
67109;BME280;54027;50.786;7.058;2023-02-17T05:28:42;101549.94;;;10.95;81.40
67109;BME280;54027;50.786;7.058;2023-02-17T05:31:07;101555.16;;;11.00;80.90
67109;BME280;54027;50.786;7.058;2023-02-17T05:33:32;101558.59;;;11.05;80.88
67109;BME280;54027;50.786;7.058;2023-02-17T05:36:02;101553.44;;;11.03;80.50
67109;BME280;54027;50.786;7.058;2023-02-17T05:38:27;101544.78;;;11.04;80.62
67109;BME280;54027;50.786;7.058;2023-02-17T05:40:53;101549.13;;;11.04;80.68
67109;BME280;54027;50.786;7.058;2023-02-17T05:43:18;101550.00;;;11.12;80.66
67109;BME280;54027;50.786;7.058;2023-02-17T05:45:43;101550.84;;;11.14;80.52
67109;BME280;54027;50.786;7.058;2023-02-17T05:48:08;101552.59;;;11.16;80.19
67109;BME280;54027;50.786;7.058;2023-02-17T05:50:34;101547.41;;;11.15;80.00
67109;BME280;54027;50.786;7.058;2023-02-17T05:52:59;101536.22;;;11.17;80.31
67109;BME280;54027;50.786;7.058;2023-02-17T05:55:24;101530.19;;;11.26;79.24
67109;BME280;54027;50.786;7.058;2023-02-17T05:57:49;101528.44;;;11.25;79.74
67109;BME280;54027;50.786;7.058;2023-02-17T06:00:15;101532.75;;;11.26;79.63
67109;BME280;54027;50.786;7.058;2023-02-17T06:02:40;101525.88;;;11.29;79.30
67109;BME280;54027;50.786;7.058;2023-02-17T06:05:06;101523.28;;;11.32;78.89
67109;BME280;54027;50.786;7.058;2023-02-17T06:07:31;101512.09;;;11.37;79.00
67109;BME280;54027;50.786;7.058;2023-02-17T06:09:56;101525.88;;;11.42;78.75
67109;BME280;54027;50.786;7.058;2023-02-17T06:12:21;101515.53;;;11.39;78.64
67109;BME280;54027;50.786;7.058;2023-02-17T06:14:47;101511.25;;;11.44;79.02
67109;BME280;54027;50.786;7.058;2023-02-17T06:17:12;101514.66;;;11.41;78.65
67109;BME280;54027;50.786;7.058;2023-02-17T06:19:37;101522.47;;;11.44;78.89
67109;BME280;54027;50.786;7.058;2023-02-17T06:22:02;101519.84;;;11.49;78.60
67109;BME280;54027;50.786;7.058;2023-02-17T06:24:28;101522.44;;;11.52;78.38
67109;BME280;54027;50.786;7.058;2023-02-17T06:26:53;101520.75;;;11.60;78.41
67109;BME280;54027;50.786;7.058;2023-02-17T06:29:18;101519.84;;;11.61;78.45
67109;BME280;54027;50.786;7.058;2023-02-17T06:31:44;101517.28;;;11.65;78.56
67109;BME280;54027;50.786;7.058;2023-02-17T06:34:09;101525.91;;;11.69;78.49
67109;BME280;54027;50.786;7.058;2023-02-17T06:36:34;101540.59;;;11.71;78.55
67109;BME280;54027;50.786;7.058;2023-02-17T06:38:59;101529.34;;;11.72;78.12
67109;BME280;54027;50.786;7.058;2023-02-17T06:41:25;101523.31;;;11.73;78.44
67109;BME280;54027;50.786;7.058;2023-02-17T06:43:50;101529.34;;;11.74;78.34
67109;BME280;54027;50.786;7.058;2023-02-17T06:46:15;101537.13;;;11.83;78.16
67109;BME280;54027;50.786;7.058;2023-02-17T06:48:40;101534.53;;;11.83;78.36
67109;BME280;54027;50.786;7.058;2023-02-17T06:51:06;101532.78;;;11.89;78.71
67109;BME280;54027;50.786;7.058;2023-02-17T06:53:31;101529.34;;;11.92;78.87
67109;BME280;54027;50.786;7.058;2023-02-17T06:55:56;101531.03;;;11.90;78.99
67109;BME280;54027;50.786;7.058;2023-02-17T06:58:21;101533.63;;;11.95;79.37
67109;BME280;54027;50.786;7.058;2023-02-17T07:00:47;101533.63;;;11.96;79.11
67109;BME280;54027;50.786;7.058;2023-02-17T07:03:12;101537.94;;;11.94;79.71
67109;BME280;54027;50.786;7.058;2023-02-17T07:05:37;101541.41;;;11.96;79.77
67109;BME280;54027;50.786;7.058;2023-02-17T07:08:04;101538.81;;;11.96;79.46
67109;BME280;54027;50.786;7.058;2023-02-17T07:10:29;101543.97;;;11.96;79.94
67109;BME280;54027;50.786;7.058;2023-02-17T07:12:55;101535.38;;;11.94;80.02
67109;BME280;54027;50.786;7.058;2023-02-17T07:15:20;101539.69;;;11.95;80.16
67109;BME280;54027;50.786;7.058;2023-02-17T07:17:45;101539.66;;;11.97;80.21
67109;BME280;54027;50.786;7.058;2023-02-17T07:20:11;101547.47;;;11.98;80.28
67109;BME280;54027;50.786;7.058;2023-02-17T07:22:37;101545.72;;;12.02;80.25
67109;BME280;54027;50.786;7.058;2023-02-17T07:25:02;101548.31;;;12.02;80.33
67109;BME280;54027;50.786;7.058;2023-02-17T07:27:28;101540.56;;;12.02;80.55
67109;BME280;54027;50.786;7.058;2023-02-17T07:29:53;101534.50;;;12.01;80.46
67109;BME280;54027;50.786;7.058;2023-02-17T07:32:19;101534.50;;;12.01;80.93
67109;BME280;54027;50.786;7.058;2023-02-17T07:34:44;101538.78;;;12.02;80.66
67109;BME280;54027;50.786;7.058;2023-02-17T07:37:10;101531.03;;;12.04;81.09
67109;BME280;54027;50.786;7.058;2023-02-17T07:39:35;101537.09;;;12.07;80.88
67109;BME280;54027;50.786;7.058;2023-02-17T07:42:00;101540.50;;;12.12;80.48
67109;BME280;54027;50.786;7.058;2023-02-17T07:44:26;101543.09;;;12.15;80.79
67109;BME280;54027;50.786;7.058;2023-02-17T07:46:52;101537.91;;;12.21;80.32
67109;BME280;54027;50.786;7.058;2023-02-17T07:49:17;101536.16;;;12.26;80.50
67109;BME280;54027;50.786;7.058;2023-02-17T07:51:43;101530.09;;;12.30;80.87
67109;BME280;54027;50.786;7.058;2023-02-17T07:54:08;101534.44;;;12.31;80.86
67109;BME280;54027;50.786;7.058;2023-02-17T07:56:33;101529.22;;;12.36;81.07
67109;BME280;54027;50.786;7.058;2023-02-17T07:58:59;101534.41;;;12.40;80.56
67109;BME280;54027;50.786;7.058;2023-02-17T08:01:24;101537.84;;;12.42;80.62
67109;BME280;54027;50.786;7.058;2023-02-17T08:03:50;101526.59;;;12.45;80.52
67109;BME280;54027;50.786;7.058;2023-02-17T08:06:16;101530.88;;;12.52;80.56
67109;BME280;54027;50.786;7.058;2023-02-17T08:08:42;101526.50;;;12.62;80.01
67109;BME280;54027;50.786;7.058;2023-02-17T08:11:26;101532.50;;;12.71;79.79
67109;BME280;54027;50.786;7.058;2023-02-17T08:14:10;101526.41;;;12.80;79.76
67109;BME280;54027;50.786;7.058;2023-02-17T08:16:35;101526.38;;;12.89;79.61
67109;BME280;54027;50.786;7.058;2023-02-17T08:19:01;101530.66;;;12.94;79.17
67109;BME280;54027;50.786;7.058;2023-02-17T08:21:26;101529.78;;;12.98;79.24
67109;BME280;54027;50.786;7.058;2023-02-17T08:23:52;101531.53;;;13.01;79.16
67109;BME280;54027;50.786;7.058;2023-02-17T08:26:18;101530.66;;;13.00;79.43
67109;BME280;54027;50.786;7.058;2023-02-17T08:28:43;101528.94;;;13.03;79.66
67109;BME280;54027;50.786;7.058;2023-02-17T08:31:16;101526.31;;;13.06;79.87
67109;BME280;54027;50.786;7.058;2023-02-17T08:33:41;101530.59;;;13.11;79.43
67109;BME280;54027;50.786;7.058;2023-02-17T08:36:07;101531.44;;;13.16;79.67
67109;BME280;54027;50.786;7.058;2023-02-17T08:38:33;101540.03;;;13.21;79.54
67109;BME280;54027;50.786;7.058;2023-02-17T08:40:58;101538.25;;;13.28;79.54
67109;BME280;54027;50.786;7.058;2023-02-17T08:43:23;101543.41;;;13.38;79.29
67109;BME280;54027;50.786;7.058;2023-02-17T08:45:48;101539.81;;;13.51;78.67
67109;BME280;54027;50.786;7.058;2023-02-17T08:48:13;101542.31;;;13.65;77.94
67109;BME280;54027;50.786;7.058;2023-02-17T08:50:39;101546.56;;;13.74;78.08
67109;BME280;54027;50.786;7.058;2023-02-17T08:53:04;101539.53;;;13.80;77.39
67109;BME280;54027;50.786;7.058;2023-02-17T08:55:29;101541.25;;;13.84;77.36
67109;BME280;54027;50.786;7.058;2023-02-17T08:57:54;101539.47;;;13.91;77.36
67109;BME280;54027;50.786;7.058;2023-02-17T09:00:20;101541.16;;;13.93;77.31
67109;BME280;54027;50.786;7.058;2023-02-17T09:02:45;101543.78;;;13.93;77.08
67109;BME280;54027;50.786;7.058;2023-02-17T09:05:11;101537.72;;;13.94;77.06
67109;BME280;54027;50.786;7.058;2023-02-17T09:07:36;101548.91;;;13.99;76.69
67109;BME280;54027;50.786;7.058;2023-02-17T09:10:03;101525.44;;;14.04;76.52
67109;BME280;54027;50.786;7.058;2023-02-17T09:12:28;101536.66;;;14.12;76.26
67109;BME280;54027;50.786;7.058;2023-02-17T09:14:54;101532.22;;;14.20;75.87
67109;BME280;54027;50.786;7.058;2023-02-17T09:17:19;101533.84;;;14.29;75.72
67109;BME280;54027;50.786;7.058;2023-02-17T09:19:45;101531.19;;;14.39;75.33
67109;BME280;54027;50.786;7.058;2023-02-17T09:22:11;101529.31;;;14.50;75.14
67109;BME280;54027;50.786;7.058;2023-02-17T09:24:38;101526.59;;;14.59;74.18
67109;BME280;54027;50.786;7.058;2023-02-17T09:27:04;101523.88;;;14.69;74.05
67109;BME280;54027;50.786;7.058;2023-02-17T09:29:29;101528.91;;;14.81;73.19
67109;BME280;54027;50.786;7.058;2023-02-17T09:31:54;101521.84;;;14.89;73.32
67109;BME280;54027;50.786;7.058;2023-02-17T09:34:20;101518.28;;;14.96;73.12
67109;BME280;54027;50.786;7.058;2023-02-17T09:36:45;101516.44;;;15.04;72.38
67109;BME280;54027;50.786;7.058;2023-02-17T09:39:10;101517.22;;;15.09;71.79
67109;BME280;54027;50.786;7.058;2023-02-17T09:41:40;101511.97;;;15.12;72.10
67109;BME280;54027;50.786;7.058;2023-02-17T09:44:09;101508.41;;;15.19;71.69
67109;BME280;54027;50.786;7.058;2023-02-17T09:46:42;101498.72;;;15.27;71.32
67109;BME280;54027;50.786;7.058;2023-02-17T09:49:17;101500.34;;;15.33;70.89
67109;BME280;54027;50.786;7.058;2023-02-17T09:54:29;101498.09;;;15.65;70.30
67109;BME280;54027;50.786;7.058;2023-02-17T09:56:56;101497.13;;;15.72;69.78
67109;BME280;54027;50.786;7.058;2023-02-17T09:59:26;101488.25;;;15.81;69.69
67109;BME280;54027;50.786;7.058;2023-02-17T10:01:53;101501.25;;;15.82;69.23
67109;BME280;54027;50.786;7.058;2023-02-17T10:04:36;101496.84;;;15.86;68.70
67109;BME280;54027;50.786;7.058;2023-02-17T10:09:36;101504.56;;;15.92;68.65
67109;BME280;54027;50.786;7.058;2023-02-17T10:12:47;101502.59;;;16.04;68.82
67109;BME280;54027;50.786;7.058;2023-02-17T10:14:55;101492.97;;;16.08;67.80
67109;BME280;54027;50.786;7.058;2023-02-17T10:17:43;101490.25;;;16.14;68.04
67109;BME280;54027;50.786;7.058;2023-02-17T10:22:53;101489.88;;;16.32;67.34
67109;BME280;54027;50.786;7.058;2023-02-17T10:25:23;101486.94;;;16.47;66.93
67109;BME280;54027;50.786;7.058;2023-02-17T10:28:07;101475.59;;;16.50;66.74
67109;BME280;54027;50.786;7.058;2023-02-17T10:30:36;101470.25;;;16.54;66.10
67109;BME280;54027;50.786;7.058;2023-02-17T10:38:16;101470.94;;;16.62;65.90
67109;BME280;54027;50.786;7.058;2023-02-17T10:40:44;101477.13;;;16.58;66.21
67109;BME280;54027;50.786;7.058;2023-02-17T10:43:10;101473.47;;;16.67;66.17
67109;BME280;54027;50.786;7.058;2023-02-17T10:45:37;101472.72;;;16.62;65.81
67109;BME280;54027;50.786;7.058;2023-02-17T10:50:33;101468.16;;;16.70;65.57
67109;BME280;54027;50.786;7.058;2023-02-17T10:53:00;101471.50;;;16.76;65.69
67109;BME280;54027;50.786;7.058;2023-02-17T10:55:40;101445.19;;;16.87;65.23
67109;BME280;54027;50.786;7.058;2023-02-17T10:58:12;101450.84;;;17.06;64.79
67109;BME280;54027;50.786;7.058;2023-02-17T11:00:40;101445.94;;;17.27;64.58
67109;BME280;54027;50.786;7.058;2023-02-17T11:03:05;101412.56;;;17.38;63.53
67109;BME280;54027;50.786;7.058;2023-02-17T11:05:42;101405.50;;;17.42;63.24
67109;BME280;54027;50.786;7.058;2023-02-17T11:08:19;101396.56;;;17.49;63.38
67109;BME280;54027;50.786;7.058;2023-02-17T11:10:47;101409.81;;;17.43;63.31
67109;BME280;54027;50.786;7.058;2023-02-17T11:13:33;101414.00;;;17.49;63.38
67109;BME280;54027;50.786;7.058;2023-02-17T11:15:58;101423.88;;;17.39;63.24
67109;BME280;54027;50.786;7.058;2023-02-17T11:18:28;101438.03;;;17.30;64.02
67109;BME280;54027;50.786;7.058;2023-02-17T11:21:02;101413.56;;;17.33;63.20
67109;BME280;54027;50.786;7.058;2023-02-17T11:23:28;101420.31;;;17.41;63.44
67109;BME280;54027;50.786;7.058;2023-02-17T11:26:17;101412.34;;;17.46;62.94
67109;BME280;54027;50.786;7.058;2023-02-17T11:28:39;101405.25;;;17.51;62.95
67109;BME280;54027;50.786;7.058;2023-02-17T11:31:04;101394.56;;;17.59;62.68
67109;BME280;54027;50.786;7.058;2023-02-17T11:33:35;101397.03;;;17.65;62.67
67109;BME280;54027;50.786;7.058;2023-02-17T11:36:00;101406.44;;;17.72;62.98
67109;BME280;54027;50.786;7.058;2023-02-17T11:38:59;101399.50;;;17.69;63.09
67109;BME280;54027;50.786;7.058;2023-02-17T11:41:17;101404.94;;;17.62;63.31
67109;BME280;54027;50.786;7.058;2023-02-17T11:43:53;101411.28;;;17.53;63.41
67109;BME280;54027;50.786;7.058;2023-02-17T11:46:27;101414.88;;;17.49;63.47
67109;BME280;54027;50.786;7.058;2023-02-17T11:49:13;101424.50;;;17.47;63.49
67109;BME280;54027;50.786;7.058;2023-02-17T11:56:43;101415.09;;;17.40;63.92
67109;BME280;54027;50.786;7.058;2023-02-17T12:11:52;101349.84;;;18.00;61.98
67109;BME280;54027;50.786;7.058;2023-02-17T12:22:15;101363.47;;;17.80;61.93
67109;BME280;54027;50.786;7.058;2023-02-17T12:32:19;101331.66;;;17.65;60.90
67109;BME280;54027;50.786;7.058;2023-02-17T12:34:52;101341.25;;;17.64;60.86
67109;BME280;54027;50.786;7.058;2023-02-17T12:37:20;101335.06;;;17.68;60.89
67109;BME280;54027;50.786;7.058;2023-02-17T12:39:48;101343.69;;;17.70;60.93
67109;BME280;54027;50.786;7.058;2023-02-17T12:45:42;101328.28;;;17.61;60.77
67109;BME280;54027;50.786;7.058;2023-02-17T12:50:21;101320.84;;;17.77;60.39
67109;BME280;54027;50.786;7.058;2023-02-17T12:52:50;101303.88;;;17.91;59.39
67109;BME280;54027;50.786;7.058;2023-02-17T12:55:29;101301.28;;;17.91;59.30
67109;BME280;54027;50.786;7.058;2023-02-17T12:57:59;101297.84;;;17.89;59.75
67109;BME280;54027;50.786;7.058;2023-02-17T13:03:00;101302.31;;;17.86;59.20
67109;BME280;54027;50.786;7.058;2023-02-17T13:05:27;101285.31;;;18.01;58.63
67109;BME280;54027;50.786;7.058;2023-02-17T13:12:55;101269.19;;;18.40;58.08
67109;BME280;54027;50.786;7.058;2023-02-17T13:15:26;101267.03;;;18.53;57.82
67109;BME280;54027;50.786;7.058;2023-02-17T13:18:13;101248.88;;;18.73;57.22
67109;BME280;54027;50.786;7.058;2023-02-17T13:23:13;101253.09;;;18.79;56.99
67109;BME280;54027;50.786;7.058;2023-02-17T13:25:39;101257.66;;;18.72;56.96
67109;BME280;54027;50.786;7.058;2023-02-17T13:28:29;101253.22;;;18.74;56.89
67109;BME280;54027;50.786;7.058;2023-02-17T13:30:56;101248.19;;;18.94;56.39
67109;BME280;54027;50.786;7.058;2023-02-17T13:33:38;101251.22;;;19.07;56.25
67109;BME280;54027;50.786;7.058;2023-02-17T13:36:11;101215.00;;;19.18;55.54
67109;BME280;54027;50.786;7.058;2023-02-17T13:38:36;101211.63;;;19.15;55.37
67109;BME280;54027;50.786;7.058;2023-02-17T13:41:04;101224.44;;;18.99;55.37
67109;BME280;54027;50.786;7.058;2023-02-17T13:43:37;101235.91;;;18.96;55.58
67109;BME280;54027;50.786;7.058;2023-02-17T13:46:04;101255.16;;;18.69;56.29
67109;BME280;54027;50.786;7.058;2023-02-17T13:48:30;101273.22;;;18.77;56.38
67109;BME280;54027;50.786;7.058;2023-02-17T13:53:55;101290.75;;;18.48;57.64
67109;BME280;54027;50.786;7.058;2023-02-17T13:56:24;101303.00;;;18.46;57.72
67109;BME280;54027;50.786;7.058;2023-02-17T13:58:50;101304.34;;;18.33;57.63
67109;BME280;54027;50.786;7.058;2023-02-17T14:01:17;101293.72;;;18.10;58.32
67109;BME280;54027;50.786;7.058;2023-02-17T14:06:11;101328.28;;;17.92;59.04
67109;BME280;54027;50.786;7.058;2023-02-17T14:08:38;101324.63;;;17.97;58.75
67109;BME280;54027;50.786;7.058;2023-02-17T14:11:08;101331.50;;;18.02;58.56
67109;BME280;54027;50.786;7.058;2023-02-17T14:13:34;101316.59;;;18.04;58.28
67109;BME280;54027;50.786;7.058;2023-02-17T14:16:00;101323.41;;;18.09;58.34
67109;BME280;54027;50.786;7.058;2023-02-17T14:18:33;101321.59;;;18.11;57.95
67109;BME280;54027;50.786;7.058;2023-02-17T14:20:59;101332.16;;;18.08;58.70
67109;BME280;54027;50.786;7.058;2023-02-17T14:23:25;101331.78;;;17.92;58.63
67109;BME280;54027;50.786;7.058;2023-02-17T14:25:51;101338.53;;;17.69;59.16
67109;BME280;54027;50.786;7.058;2023-02-17T14:28:20;101353.56;;;17.61;59.66
67109;BME280;54027;50.786;7.058;2023-02-17T14:30:46;101373.56;;;17.62;60.02